sensor_id;sensor_type;location;lat;lon;timestamp;P1;durP1;ratioP1;P2;durP2;ratioP2
15679;SDS011;15488;48.114;11.532;2024-02-21T00:00:40;2.40;;;1.10;;
15679;SDS011;15488;48.114;11.532;2024-02-21T00:03:08;2.13;;;1.20;;
15679;SDS011;15488;48.114;11.532;2024-02-21T00:05:35;3.53;;;1.47;;
15679;SDS011;15488;48.114;11.532;2024-02-21T00:08:03;3.83;;;1.30;;
15679;SDS011;15488;48.114;11.532;2024-02-21T00:10:31;3.00;;;1.10;;
15679;SDS011;15488;48.114;11.532;2024-02-21T00:12:58;1.80;;;1.30;;
15679;SDS011;15488;48.114;11.532;2024-02-21T00:15:26;3.53;;;1.37;;
15679;SDS011;15488;48.114;11.532;2024-02-21T00:17:55;3.17;;;1.40;;
15679;SDS011;15488;48.114;11.532;2024-02-21T00:20:22;3.33;;;1.27;;
15679;SDS011;15488;48.114;11.532;2024-02-21T00:22:51;2.97;;;1.20;;
15679;SDS011;15488;48.114;11.532;2024-02-21T00:25:19;2.60;;;1.20;;
15679;SDS011;15488;48.114;11.532;2024-02-21T00:27:47;2.10;;;1.10;;
15679;SDS011;15488;48.114;11.532;2024-02-21T00:30:14;1.50;;;0.93;;
15679;SDS011;15488;48.114;11.532;2024-02-21T00:32:42;2.70;;;1.10;;
15679;SDS011;15488;48.114;11.532;2024-02-21T00:35:11;1.37;;;1.10;;
15679;SDS011;15488;48.114;11.532;2024-02-21T00:37:38;2.77;;;1.30;;
15679;SDS011;15488;48.114;11.532;2024-02-21T00:40:06;2.80;;;1.20;;
15679;SDS011;15488;48.114;11.532;2024-02-21T00:42:34;3.23;;;1.50;;
15679;SDS011;15488;48.114;11.532;2024-02-21T00:45:02;3.43;;;1.33;;
15679;SDS011;15488;48.114;11.532;2024-02-21T00:47:30;3.30;;;1.63;;
15679;SDS011;15488;48.114;11.532;2024-02-21T00:49:58;2.00;;;1.10;;
15679;SDS011;15488;48.114;11.532;2024-02-21T00:52:27;3.10;;;1.30;;
15679;SDS011;15488;48.114;11.532;2024-02-21T00:54:54;3.10;;;1.17;;
15679;SDS011;15488;48.114;11.532;2024-02-21T00:57:22;2.00;;;1.03;;
15679;SDS011;15488;48.114;11.532;2024-02-21T00:59:50;2.17;;;1.40;;
15679;SDS011;15488;48.114;11.532;2024-02-21T01:02:17;2.07;;;1.20;;
15679;SDS011;15488;48.114;11.532;2024-02-21T01:04:45;1.63;;;1.27;;
15679;SDS011;15488;48.114;11.532;2024-02-21T01:07:12;2.50;;;1.00;;
15679;SDS011;15488;48.114;11.532;2024-02-21T01:09:41;1.90;;;1.03;;
15679;SDS011;15488;48.114;11.532;2024-02-21T01:12:09;2.37;;;1.20;;
15679;SDS011;15488;48.114;11.532;2024-02-21T01:14:36;2.27;;;1.20;;
15679;SDS011;15488;48.114;11.532;2024-02-21T01:17:04;3.20;;;1.20;;
15679;SDS011;15488;48.114;11.532;2024-02-21T01:19:32;3.40;;;1.20;;
15679;SDS011;15488;48.114;11.532;2024-02-21T01:21:59;1.83;;;1.20;;
15679;SDS011;15488;48.114;11.532;2024-02-21T01:24:28;1.87;;;1.10;;
15679;SDS011;15488;48.114;11.532;2024-02-21T01:26:57;2.73;;;1.10;;
15679;SDS011;15488;48.114;11.532;2024-02-21T01:29:24;1.10;;;1.00;;
15679;SDS011;15488;48.114;11.532;2024-02-21T01:31:52;1.23;;;0.83;;
15679;SDS011;15488;48.114;11.532;2024-02-21T01:34:19;2.13;;;1.00;;
15679;SDS011;15488;48.114;11.532;2024-02-21T01:36:47;2.40;;;0.90;;
15679;SDS011;15488;48.114;11.532;2024-02-21T01:39:14;1.47;;;1.17;;
15679;SDS011;15488;48.114;11.532;2024-02-21T01:41:42;1.60;;;1.17;;
15679;SDS011;15488;48.114;11.532;2024-02-21T01:44:11;1.77;;;1.00;;
15679;SDS011;15488;48.114;11.532;2024-02-21T01:46:40;2.70;;;1.10;;
15679;SDS011;15488;48.114;11.532;2024-02-21T01:49:07;1.10;;;0.87;;
15679;SDS011;15488;48.114;11.532;2024-02-21T01:51:36;2.33;;;1.07;;
15679;SDS011;15488;48.114;11.532;2024-02-21T01:54:03;1.73;;;0.97;;
15679;SDS011;15488;48.114;11.532;2024-02-21T01:56:31;1.90;;;0.90;;
15679;SDS011;15488;48.114;11.532;2024-02-21T01:58:59;2.37;;;1.10;;
15679;SDS011;15488;48.114;11.532;2024-02-21T02:01:29;1.50;;;1.00;;
15679;SDS011;15488;48.114;11.532;2024-02-21T02:03:57;2.53;;;1.37;;
15679;SDS011;15488;48.114;11.532;2024-02-21T02:06:26;1.70;;;0.80;;
15679;SDS011;15488;48.114;11.532;2024-02-21T02:08:53;1.67;;;0.73;;
15679;SDS011;15488;48.114;11.532;2024-02-21T02:11:21;2.93;;;0.90;;
15679;SDS011;15488;48.114;11.532;2024-02-21T02:13:49;1.30;;;0.80;;
15679;SDS011;15488;48.114;11.532;2024-02-21T02:16:16;1.27;;;0.70;;
15679;SDS011;15488;48.114;11.532;2024-02-21T02:18:45;0.97;;;0.80;;
15679;SDS011;15488;48.114;11.532;2024-02-21T02:21:13;1.50;;;0.80;;
15679;SDS011;15488;48.114;11.532;2024-02-21T02:23:50;1.30;;;0.80;;
15679;SDS011;15488;48.114;11.532;2024-02-21T02:26:18;2.10;;;0.93;;
15679;SDS011;15488;48.114;11.532;2024-02-21T02:28:46;1.23;;;0.97;;
15679;SDS011;15488;48.114;11.532;2024-02-21T02:31:13;1.90;;;0.80;;
15679;SDS011;15488;48.114;11.532;2024-02-21T02:33:42;1.47;;;0.70;;
15679;SDS011;15488;48.114;11.532;2024-02-21T02:36:10;1.67;;;0.70;;
15679;SDS011;15488;48.114;11.532;2024-02-21T02:38:37;2.83;;;1.23;;
15679;SDS011;15488;48.114;11.532;2024-02-21T02:41:06;1.03;;;0.70;;
15679;SDS011;15488;48.114;11.532;2024-02-21T02:43:34;1.57;;;0.77;;
15679;SDS011;15488;48.114;11.532;2024-02-21T02:46:02;1.50;;;0.87;;
15679;SDS011;15488;48.114;11.532;2024-02-21T02:48:29;1.10;;;0.83;;
15679;SDS011;15488;48.114;11.532;2024-02-21T02:50:57;1.00;;;0.90;;
15679;SDS011;15488;48.114;11.532;2024-02-21T02:53:24;1.13;;;0.90;;
15679;SDS011;15488;48.114;11.532;2024-02-21T02:55:52;1.17;;;0.80;;
15679;SDS011;15488;48.114;11.532;2024-02-21T02:58:21;1.27;;;0.67;;
15679;SDS011;15488;48.114;11.532;2024-02-21T03:00:49;1.83;;;0.80;;
15679;SDS011;15488;48.114;11.532;2024-02-21T03:03:17;1.60;;;0.90;;
15679;SDS011;15488;48.114;11.532;2024-02-21T03:05:44;1.40;;;0.80;;
15679;SDS011;15488;48.114;11.532;2024-02-21T03:08:12;1.77;;;0.90;;
15679;SDS011;15488;48.114;11.532;2024-02-21T03:10:40;1.30;;;0.80;;
15679;SDS011;15488;48.114;11.532;2024-02-21T03:13:08;0.80;;;0.60;;
15679;SDS011;15488;48.114;11.532;2024-02-21T03:15:36;1.53;;;0.90;;
15679;SDS011;15488;48.114;11.532;2024-02-21T03:18:05;0.60;;;0.60;;
15679;SDS011;15488;48.114;11.532;2024-02-21T03:20:33;1.20;;;0.70;;
15679;SDS011;15488;48.114;11.532;2024-02-21T03:23:00;1.27;;;0.63;;
15679;SDS011;15488;48.114;11.532;2024-02-21T03:25:28;1.30;;;1.00;;
15679;SDS011;15488;48.114;11.532;2024-02-21T03:27:55;1.63;;;0.70;;
15679;SDS011;15488;48.114;11.532;2024-02-21T03:30:23;1.10;;;0.70;;
15679;SDS011;15488;48.114;11.532;2024-02-21T03:32:52;1.23;;;0.70;;
15679;SDS011;15488;48.114;11.532;2024-02-21T03:35:19;0.80;;;0.70;;
15679;SDS011;15488;48.114;11.532;2024-02-21T03:37:47;0.80;;;0.80;;
15679;SDS011;15488;48.114;11.532;2024-02-21T03:40:14;1.50;;;0.63;;
15679;SDS011;15488;48.114;11.532;2024-02-21T03:42:42;1.73;;;0.80;;
15679;SDS011;15488;48.114;11.532;2024-02-21T03:45:10;1.07;;;0.70;;
15679;SDS011;15488;48.114;11.532;2024-02-21T03:47:37;2.23;;;0.73;;
15679;SDS011;15488;48.114;11.532;2024-02-21T03:50:07;2.30;;;1.03;;
15679;SDS011;15488;48.114;11.532;2024-02-21T03:52:34;1.27;;;0.60;;
15679;SDS011;15488;48.114;11.532;2024-02-21T03:55:02;1.27;;;0.80;;
15679;SDS011;15488;48.114;11.532;2024-02-21T03:57:30;0.67;;;0.60;;
15679;SDS011;15488;48.114;11.532;2024-02-21T03:59:57;0.70;;;0.67;;
15679;SDS011;15488;48.114;11.532;2024-02-21T04:02:25;0.83;;;0.50;;
15679;SDS011;15488;48.114;11.532;2024-02-21T04:04:53;1.43;;;0.60;;
15679;SDS011;15488;48.114;11.532;2024-02-21T04:07:22;1.63;;;0.60;;
15679;SDS011;15488;48.114;11.532;2024-02-21T04:09:49;1.33;;;0.40;;
15679;SDS011;15488;48.114;11.532;2024-02-21T04:12:17;2.10;;;0.63;;
15679;SDS011;15488;48.114;11.532;2024-02-21T04:14:44;0.70;;;0.60;;
15679;SDS011;15488;48.114;11.532;2024-02-21T04:17:12;0.60;;;0.50;;
15679;SDS011;15488;48.114;11.532;2024-02-21T04:19:39;0.60;;;0.60;;
15679;SDS011;15488;48.114;11.532;2024-02-21T04:22:07;0.83;;;0.53;;
15679;SDS011;15488;48.114;11.532;2024-02-21T04:24:36;0.70;;;0.40;;
15679;SDS011;15488;48.114;11.532;2024-02-21T04:27:04;0.53;;;0.50;;
15679;SDS011;15488;48.114;11.532;2024-02-21T04:29:31;1.63;;;0.50;;
15679;SDS011;15488;48.114;11.532;2024-02-21T04:31:59;0.70;;;0.50;;
15679;SDS011;15488;48.114;11.532;2024-02-21T04:34:27;0.50;;;0.30;;
15679;SDS011;15488;48.114;11.532;2024-02-21T04:36:55;0.60;;;0.47;;
15679;SDS011;15488;48.114;11.532;2024-02-21T04:39:23;0.60;;;0.50;;
15679;SDS011;15488;48.114;11.532;2024-02-21T04:41:52;0.50;;;0.30;;
15679;SDS011;15488;48.114;11.532;2024-02-21T04:44:20;1.57;;;0.50;;
15679;SDS011;15488;48.114;11.532;2024-02-21T04:46:47;0.50;;;0.40;;
15679;SDS011;15488;48.114;11.532;2024-02-21T04:49:15;1.07;;;0.60;;
15679;SDS011;15488;48.114;11.532;2024-02-21T04:51:43;0.70;;;0.50;;
15679;SDS011;15488;48.114;11.532;2024-02-21T04:54:10;0.50;;;0.40;;
15679;SDS011;15488;48.114;11.532;2024-02-21T04:56:38;0.50;;;0.40;;
15679;SDS011;15488;48.114;11.532;2024-02-21T04:59:07;0.80;;;0.50;;
15679;SDS011;15488;48.114;11.532;2024-02-21T05:01:34;0.70;;;0.53;;
15679;SDS011;15488;48.114;11.532;2024-02-21T05:04:02;1.07;;;0.60;;
15679;SDS011;15488;48.114;11.532;2024-02-21T05:06:29;1.00;;;0.50;;
15679;SDS011;15488;48.114;11.532;2024-02-21T05:08:57;0.90;;;0.50;;
15679;SDS011;15488;48.114;11.532;2024-02-21T05:11:25;1.03;;;0.60;;
15679;SDS011;15488;48.114;11.532;2024-02-21T05:13:52;1.77;;;0.87;;
15679;SDS011;15488;48.114;11.532;2024-02-21T05:16:21;1.00;;;0.70;;
15679;SDS011;15488;48.114;11.532;2024-02-21T05:18:49;0.90;;;0.67;;
15679;SDS011;15488;48.114;11.532;2024-02-21T05:21:16;1.80;;;0.70;;
15679;SDS011;15488;48.114;11.532;2024-02-21T05:23:44;1.00;;;0.80;;
15679;SDS011;15488;48.114;11.532;2024-02-21T05:26:12;1.27;;;0.70;;
15679;SDS011;15488;48.114;11.532;2024-02-21T05:28:47;1.00;;;0.90;;
15679;SDS011;15488;48.114;11.532;2024-02-21T05:31:15;1.63;;;0.90;;
15679;SDS011;15488;48.114;11.532;2024-02-21T05:33:45;1.70;;;0.70;;
15679;SDS011;15488;48.114;11.532;2024-02-21T05:36:13;1.23;;;0.80;;
15679;SDS011;15488;48.114;11.532;2024-02-21T05:38:40;1.10;;;0.70;;
15679;SDS011;15488;48.114;11.532;2024-02-21T05:41:08;1.20;;;0.90;;
15679;SDS011;15488;48.114;11.532;2024-02-21T05:43:35;1.20;;;0.97;;
15679;SDS011;15488;48.114;11.532;2024-02-21T05:46:03;4.83;;;1.00;;
15679;SDS011;15488;48.114;11.532;2024-02-21T05:48:31;1.30;;;1.20;;
15679;SDS011;15488;48.114;11.532;2024-02-21T05:51:01;0.87;;;0.80;;
15679;SDS011;15488;48.114;11.532;2024-02-21T05:53:29;1.67;;;0.70;;
15679;SDS011;15488;48.114;11.532;2024-02-21T05:55:56;0.67;;;0.53;;
15679;SDS011;15488;48.114;11.532;2024-02-21T05:58:24;1.50;;;0.70;;
15679;SDS011;15488;48.114;11.532;2024-02-21T06:00:52;1.10;;;0.60;;
15679;SDS011;15488;48.114;11.532;2024-02-21T06:03:20;0.90;;;0.70;;
15679;SDS011;15488;48.114;11.532;2024-02-21T06:05:47;1.10;;;0.80;;
15679;SDS011;15488;48.114;11.532;2024-02-21T06:08:16;1.33;;;0.70;;
15679;SDS011;15488;48.114;11.532;2024-02-21T06:10:45;1.23;;;0.87;;
15679;SDS011;15488;48.114;11.532;2024-02-21T06:13:13;1.00;;;0.90;;
15679;SDS011;15488;48.114;11.532;2024-02-21T06:15:41;1.10;;;0.73;;
15679;SDS011;15488;48.114;11.532;2024-02-21T06:18:08;1.57;;;0.70;;
15679;SDS011;15488;48.114;11.532;2024-02-21T06:20:36;1.50;;;0.83;;
15679;SDS011;15488;48.114;11.532;2024-02-21T06:23:05;1.80;;;1.03;;
15679;SDS011;15488;48.114;11.532;2024-02-21T06:25:34;1.57;;;0.80;;
15679;SDS011;15488;48.114;11.532;2024-02-21T06:28:02;1.23;;;0.80;;
15679;SDS011;15488;48.114;11.532;2024-02-21T06:30:30;1.67;;;0.70;;
15679;SDS011;15488;48.114;11.532;2024-02-21T06:32:57;1.20;;;0.67;;
15679;SDS011;15488;48.114;11.532;2024-02-21T06:35:25;0.80;;;0.77;;
15679;SDS011;15488;48.114;11.532;2024-02-21T06:37:53;0.93;;;0.60;;
15679;SDS011;15488;48.114;11.532;2024-02-21T06:40:21;0.90;;;0.60;;
15679;SDS011;15488;48.114;11.532;2024-02-21T06:42:50;1.67;;;0.67;;
15679;SDS011;15488;48.114;11.532;2024-02-21T06:45:18;2.53;;;0.70;;
15679;SDS011;15488;48.114;11.532;2024-02-21T06:47:46;2.40;;;0.70;;
15679;SDS011;15488;48.114;11.532;2024-02-21T06:50:13;0.87;;;0.70;;
15679;SDS011;15488;48.114;11.532;2024-02-21T06:52:42;1.80;;;0.80;;
15679;SDS011;15488;48.114;11.532;2024-02-21T06:55:10;0.87;;;0.80;;
15679;SDS011;15488;48.114;11.532;2024-02-21T06:57:37;1.57;;;0.60;;
15679;SDS011;15488;48.114;11.532;2024-02-21T07:00:07;0.70;;;0.63;;
15679;SDS011;15488;48.114;11.532;2024-02-21T07:02:35;1.97;;;0.80;;
15679;SDS011;15488;48.114;11.532;2024-02-21T07:05:03;1.37;;;0.80;;
15679;SDS011;15488;48.114;11.532;2024-02-21T07:07:31;0.70;;;0.60;;
15679;SDS011;15488;48.114;11.532;2024-02-21T07:10:00;0.93;;;0.70;;
15679;SDS011;15488;48.114;11.532;2024-02-21T07:12:27;1.90;;;0.80;;
15679;SDS011;15488;48.114;11.532;2024-02-21T07:14:55;1.10;;;0.80;;
15679;SDS011;15488;48.114;11.532;2024-02-21T07:17:24;1.23;;;0.50;;
15679;SDS011;15488;48.114;11.532;2024-02-21T07:19:51;1.70;;;0.63;;
15679;SDS011;15488;48.114;11.532;2024-02-21T07:22:21;1.80;;;0.70;;
15679;SDS011;15488;48.114;11.532;2024-02-21T07:24:49;1.47;;;0.60;;
15679;SDS011;15488;48.114;11.532;2024-02-21T07:27:17;1.30;;;0.60;;
15679;SDS011;15488;48.114;11.532;2024-02-21T07:29:44;1.37;;;0.57;;
15679;SDS011;15488;48.114;11.532;2024-02-21T07:32:14;1.70;;;0.70;;
15679;SDS011;15488;48.114;11.532;2024-02-21T07:34:42;0.60;;;0.60;;
15679;SDS011;15488;48.114;11.532;2024-02-21T07:37:12;1.17;;;0.50;;
15679;SDS011;15488;48.114;11.532;2024-02-21T07:39:40;1.73;;;0.70;;
15679;SDS011;15488;48.114;11.532;2024-02-21T07:42:08;0.90;;;0.50;;
15679;SDS011;15488;48.114;11.532;2024-02-21T07:44:35;1.33;;;0.50;;
15679;SDS011;15488;48.114;11.532;2024-02-21T07:47:03;0.80;;;0.30;;
15679;SDS011;15488;48.114;11.532;2024-02-21T07:49:32;1.03;;;0.40;;
15679;SDS011;15488;48.114;11.532;2024-02-21T07:52:01;0.50;;;0.40;;
15679;SDS011;15488;48.114;11.532;2024-02-21T07:54:29;0.93;;;0.40;;
15679;SDS011;15488;48.114;11.532;2024-02-21T07:56:57;1.33;;;0.40;;
15679;SDS011;15488;48.114;11.532;2024-02-21T07:59:24;1.07;;;0.70;;
15679;SDS011;15488;48.114;11.532;2024-02-21T08:01:56;1.80;;;0.60;;
15679;SDS011;15488;48.114;11.532;2024-02-21T08:04:23;1.50;;;0.60;;
15679;SDS011;15488;48.114;11.532;2024-02-21T08:06:51;1.63;;;0.80;;
15679;SDS011;15488;48.114;11.532;2024-02-21T08:09:22;1.90;;;0.53;;
15679;SDS011;15488;48.114;11.532;2024-02-21T08:11:49;1.63;;;0.50;;
15679;SDS011;15488;48.114;11.532;2024-02-21T08:14:17;1.00;;;0.77;;
15679;SDS011;15488;48.114;11.532;2024-02-21T08:16:45;1.90;;;0.70;;
15679;SDS011;15488;48.114;11.532;2024-02-21T08:19:12;1.07;;;0.50;;
15679;SDS011;15488;48.114;11.532;2024-02-21T08:21:40;0.80;;;0.57;;
15679;SDS011;15488;48.114;11.532;2024-02-21T08:24:07;1.23;;;0.60;;
15679;SDS011;15488;48.114;11.532;2024-02-21T08:26:37;0.73;;;0.50;;
15679;SDS011;15488;48.114;11.532;2024-02-21T08:29:07;0.70;;;0.43;;
15679;SDS011;15488;48.114;11.532;2024-02-21T08:31:34;1.40;;;0.50;;
15679;SDS011;15488;48.114;11.532;2024-02-21T08:34:02;0.87;;;0.50;;
15679;SDS011;15488;48.114;11.532;2024-02-21T08:36:30;1.50;;;0.50;;
15679;SDS011;15488;48.114;11.532;2024-02-21T08:38:58;1.47;;;0.60;;
15679;SDS011;15488;48.114;11.532;2024-02-21T08:41:26;1.00;;;0.50;;
15679;SDS011;15488;48.114;11.532;2024-02-21T08:43:55;0.97;;;0.60;;
15679;SDS011;15488;48.114;11.532;2024-02-21T08:46:23;0.40;;;0.40;;
15679;SDS011;15488;48.114;11.532;2024-02-21T08:48:51;0.70;;;0.50;;
15679;SDS011;15488;48.114;11.532;2024-02-21T08:51:19;0.80;;;0.50;;
15679;SDS011;15488;48.114;11.532;2024-02-21T08:53:46;3.30;;;0.50;;
15679;SDS011;15488;48.114;11.532;2024-02-21T08:56:14;0.77;;;0.33;;
15679;SDS011;15488;48.114;11.532;2024-02-21T08:58:42;0.37;;;0.37;;
15679;SDS011;15488;48.114;11.532;2024-02-21T09:01:12;0.93;;;0.40;;
15679;SDS011;15488;48.114;11.532;2024-02-21T09:03:40;0.63;;;0.50;;
15679;SDS011;15488;48.114;11.532;2024-02-21T09:06:09;2.00;;;0.50;;
15679;SDS011;15488;48.114;11.532;2024-02-21T09:08:38;0.70;;;0.50;;
15679;SDS011;15488;48.114;11.532;2024-02-21T09:11:06;0.87;;;0.50;;
15679;SDS011;15488;48.114;11.532;2024-02-21T09:13:33;1.43;;;0.50;;
15679;SDS011;15488;48.114;11.532;2024-02-21T09:16:01;0.60;;;0.40;;
15679;SDS011;15488;48.114;11.532;2024-02-21T09:18:30;0.70;;;0.50;;
15679;SDS011;15488;48.114;11.532;2024-02-21T09:20:58;1.00;;;0.37;;
15679;SDS011;15488;48.114;11.532;2024-02-21T09:23:25;1.07;;;0.53;;
15679;SDS011;15488;48.114;11.532;2024-02-21T09:25:53;0.47;;;0.30;;
15679;SDS011;15488;48.114;11.532;2024-02-21T09:28:20;0.37;;;0.30;;
15679;SDS011;15488;48.114;11.532;2024-02-21T09:30:48;0.90;;;0.37;;
15679;SDS011;15488;48.114;11.532;2024-02-21T09:33:16;0.43;;;0.40;;
15679;SDS011;15488;48.114;11.532;2024-02-21T09:35:45;0.67;;;0.30;;
15679;SDS011;15488;48.114;11.532;2024-02-21T09:38:13;1.50;;;0.60;;
15679;SDS011;15488;48.114;11.532;2024-02-21T09:40:41;0.50;;;0.50;;
15679;SDS011;15488;48.114;11.532;2024-02-21T09:43:08;0.97;;;0.70;;
15679;SDS011;15488;48.114;11.532;2024-02-21T09:45:36;0.80;;;0.47;;
15679;SDS011;15488;48.114;11.532;2024-02-21T09:48:11;0.33;;;0.33;;
15679;SDS011;15488;48.114;11.532;2024-02-21T09:50:51;0.30;;;0.30;;
15679;SDS011;15488;48.114;11.532;2024-02-21T09:53:19;0.87;;;0.47;;
15679;SDS011;15488;48.114;11.532;2024-02-21T09:55:47;0.70;;;0.50;;
15679;SDS011;15488;48.114;11.532;2024-02-21T09:58:15;0.50;;;0.30;;
15679;SDS011;15488;48.114;11.532;2024-02-21T10:00:43;1.13;;;0.30;;
15679;SDS011;15488;48.114;11.532;2024-02-21T10:03:11;0.90;;;0.40;;
15679;SDS011;15488;48.114;11.532;2024-02-21T10:05:38;0.77;;;0.40;;
15679;SDS011;15488;48.114;11.532;2024-02-21T10:08:15;0.50;;;0.40;;
15679;SDS011;15488;48.114;11.532;2024-02-21T10:10:43;0.50;;;0.40;;
15679;SDS011;15488;48.114;11.532;2024-02-21T10:13:11;0.20;;;0.20;;
15679;SDS011;15488;48.114;11.532;2024-02-21T10:15:59;0.30;;;0.30;;
15679;SDS011;15488;48.114;11.532;2024-02-21T10:18:28;0.70;;;0.40;;
15679;SDS011;15488;48.114;11.532;2024-02-21T10:20:59;0.20;;;0.20;;
15679;SDS011;15488;48.114;11.532;2024-02-21T10:23:29;0.33;;;0.30;;
15679;SDS011;15488;48.114;11.532;2024-02-21T10:26:07;0.40;;;0.20;;
15679;SDS011;15488;48.114;11.532;2024-02-21T10:28:35;1.60;;;0.40;;
15679;SDS011;15488;48.114;11.532;2024-02-21T10:31:03;0.50;;;0.30;;
15679;SDS011;15488;48.114;11.532;2024-02-21T10:33:31;0.70;;;0.30;;
15679;SDS011;15488;48.114;11.532;2024-02-21T10:36:06;0.40;;;0.37;;
15679;SDS011;15488;48.114;11.532;2024-02-21T10:38:36;1.50;;;0.40;;
15679;SDS011;15488;48.114;11.532;2024-02-21T10:41:04;0.97;;;0.50;;
15679;SDS011;15488;48.114;11.532;2024-02-21T10:43:33;1.23;;;0.40;;
15679;SDS011;15488;48.114;11.532;2024-02-21T10:46:15;0.90;;;0.33;;
15679;SDS011;15488;48.114;11.532;2024-02-21T10:48:46;0.20;;;0.20;;
15679;SDS011;15488;48.114;11.532;2024-02-21T10:51:21;0.57;;;0.30;;
15679;SDS011;15488;48.114;11.532;2024-02-21T10:53:57;0.20;;;0.20;;
15679;SDS011;15488;48.114;11.532;2024-02-21T10:56:33;0.50;;;0.20;;
15679;SDS011;15488;48.114;11.532;2024-02-21T10:59:02;0.27;;;0.20;;
15679;SDS011;15488;48.114;11.532;2024-02-21T11:01:30;0.43;;;0.23;;
15679;SDS011;15488;48.114;11.532;2024-02-21T11:04:01;1.90;;;0.40;;
15679;SDS011;15488;48.114;11.532;2024-02-21T11:06:30;0.47;;;0.33;;
15679;SDS011;15488;48.114;11.532;2024-02-21T11:09:04;0.20;;;0.20;;
15679;SDS011;15488;48.114;11.532;2024-02-21T11:11:33;0.20;;;0.20;;
15679;SDS011;15488;48.114;11.532;2024-02-21T11:14:05;0.20;;;0.10;;
15679;SDS011;15488;48.114;11.532;2024-02-21T11:16:36;0.10;;;0.10;;
15679;SDS011;15488;48.114;11.532;2024-02-21T11:19:08;0.20;;;0.10;;
15679;SDS011;15488;48.114;11.532;2024-02-21T11:21:44;0.63;;;0.23;;
15679;SDS011;15488;48.114;11.532;2024-02-21T11:24:14;0.43;;;0.30;;
15679;SDS011;15488;48.114;11.532;2024-02-21T11:26:54;0.30;;;0.20;;
15679;SDS011;15488;48.114;11.532;2024-02-21T11:29:25;0.30;;;0.30;;
15679;SDS011;15488;48.114;11.532;2024-02-21T11:31:54;0.47;;;0.20;;
15679;SDS011;15488;48.114;11.532;2024-02-21T11:34:21;0.30;;;0.13;;
15679;SDS011;15488;48.114;11.532;2024-02-21T11:36:49;0.60;;;0.20;;
15679;SDS011;15488;48.114;11.532;2024-02-21T11:39:23;0.20;;;0.10;;
15679;SDS011;15488;48.114;11.532;2024-02-21T11:42:01;0.30;;;0.10;;
15679;SDS011;15488;48.114;11.532;2024-02-21T11:44:29;0.30;;;0.10;;
15679;SDS011;15488;48.114;11.532;2024-02-21T11:46:57;0.67;;;0.33;;
15679;SDS011;15488;48.114;11.532;2024-02-21T11:49:25;0.13;;;0.13;;
15679;SDS011;15488;48.114;11.532;2024-02-21T11:51:58;0.13;;;0.13;;
15679;SDS011;15488;48.114;11.532;2024-02-21T11:54:27;0.20;;;0.13;;
15679;SDS011;15488;48.114;11.532;2024-02-21T11:56:55;0.23;;;0.10;;
15679;SDS011;15488;48.114;11.532;2024-02-21T11:59:22;1.27;;;0.33;;
15679;SDS011;15488;48.114;11.532;2024-02-21T12:01:50;11.67;;;4.37;;
15679;SDS011;15488;48.114;11.532;2024-02-21T12:04:19;2.33;;;1.23;;
15679;SDS011;15488;48.114;11.532;2024-02-21T12:06:49;0.83;;;0.50;;
15679;SDS011;15488;48.114;11.532;2024-02-21T12:09:18;0.80;;;0.30;;
15679;SDS011;15488;48.114;11.532;2024-02-21T12:11:56;0.50;;;0.30;;
15679;SDS011;15488;48.114;11.532;2024-02-21T12:14:24;0.33;;;0.20;;
15679;SDS011;15488;48.114;11.532;2024-02-21T12:16:54;0.60;;;0.30;;
15679;SDS011;15488;48.114;11.532;2024-02-21T12:19:21;0.20;;;0.20;;
15679;SDS011;15488;48.114;11.532;2024-02-21T12:21:49;0.13;;;0.10;;
15679;SDS011;15488;48.114;11.532;2024-02-21T12:24:17;0.10;;;0.10;;
15679;SDS011;15488;48.114;11.532;2024-02-21T12:26:49;0.60;;;0.20;;
15679;SDS011;15488;48.114;11.532;2024-02-21T12:29:17;0.47;;;0.20;;
15679;SDS011;15488;48.114;11.532;2024-02-21T12:31:44;0.43;;;0.30;;
15679;SDS011;15488;48.114;11.532;2024-02-21T12:34:12;0.40;;;0.37;;
15679;SDS011;15488;48.114;11.532;2024-02-21T12:36:41;0.60;;;0.20;;
15679;SDS011;15488;48.114;11.532;2024-02-21T12:39:10;0.30;;;0.20;;
15679;SDS011;15488;48.114;11.532;2024-02-21T12:41:37;1.17;;;0.30;;
15679;SDS011;15488;48.114;11.532;2024-02-21T12:44:07;2.57;;;1.80;;
15679;SDS011;15488;48.114;11.532;2024-02-21T12:46:36;0.53;;;0.50;;
15679;SDS011;15488;48.114;11.532;2024-02-21T12:49:04;0.23;;;0.10;;
15679;SDS011;15488;48.114;11.532;2024-02-21T12:51:33;1.07;;;0.30;;
15679;SDS011;15488;48.114;11.532;2024-02-21T12:54:01;1.50;;;0.30;;
15679;SDS011;15488;48.114;11.532;2024-02-21T12:56:29;0.70;;;0.30;;
15679;SDS011;15488;48.114;11.532;2024-02-21T12:58:57;0.57;;;0.30;;
15679;SDS011;15488;48.114;11.532;2024-02-21T13:01:26;0.70;;;0.37;;
15679;SDS011;15488;48.114;11.532;2024-02-21T13:03:54;1.63;;;0.30;;
15679;SDS011;15488;48.114;11.532;2024-02-21T13:06:22;1.37;;;0.20;;
15679;SDS011;15488;48.114;11.532;2024-02-21T13:08:50;0.77;;;0.20;;
15679;SDS011;15488;48.114;11.532;2024-02-21T13:11:18;0.93;;;0.17;;
15679;SDS011;15488;48.114;11.532;2024-02-21T13:13:46;0.30;;;0.20;;
15679;SDS011;15488;48.114;11.532;2024-02-21T13:16:13;0.40;;;0.40;;
15679;SDS011;15488;48.114;11.532;2024-02-21T13:18:42;2.40;;;1.23;;
15679;SDS011;15488;48.114;11.532;2024-02-21T13:21:12;0.47;;;0.30;;
15679;SDS011;15488;48.114;11.532;2024-02-21T13:23:40;0.50;;;0.30;;
15679;SDS011;15488;48.114;11.532;2024-02-21T13:26:09;0.47;;;0.30;;
15679;SDS011;15488;48.114;11.532;2024-02-21T13:28:37;0.20;;;0.10;;
15679;SDS011;15488;48.114;11.532;2024-02-21T13:31:05;0.27;;;0.20;;
15679;SDS011;15488;48.114;11.532;2024-02-21T13:33:32;0.20;;;0.20;;
15679;SDS011;15488;48.114;11.532;2024-02-21T13:36:03;1.10;;;0.10;;
15679;SDS011;15488;48.114;11.532;2024-02-21T13:38:31;0.20;;;0.10;;
15679;SDS011;15488;48.114;11.532;2024-02-21T13:40:58;0.20;;;0.20;;
15679;SDS011;15488;48.114;11.532;2024-02-21T13:43:26;0.20;;;0.20;;
15679;SDS011;15488;48.114;11.532;2024-02-21T13:45:56;0.30;;;0.20;;
15679;SDS011;15488;48.114;11.532;2024-02-21T13:48:24;0.73;;;0.33;;
15679;SDS011;15488;48.114;11.532;2024-02-21T13:50:52;0.57;;;0.20;;
15679;SDS011;15488;48.114;11.532;2024-02-21T13:53:21;0.70;;;0.30;;
15679;SDS011;15488;48.114;11.532;2024-02-21T13:55:49;0.80;;;0.50;;
15679;SDS011;15488;48.114;11.532;2024-02-21T13:58:16;1.40;;;0.40;;
15679;SDS011;15488;48.114;11.532;2024-02-21T14:00:45;1.57;;;0.30;;
15679;SDS011;15488;48.114;11.532;2024-02-21T14:03:12;0.73;;;0.20;;
15679;SDS011;15488;48.114;11.532;2024-02-21T14:05:40;1.17;;;0.60;;
15679;SDS011;15488;48.114;11.532;2024-02-21T14:08:07;0.70;;;0.40;;
15679;SDS011;15488;48.114;11.532;2024-02-21T14:10:36;0.40;;;0.40;;
15679;SDS011;15488;48.114;11.532;2024-02-21T14:13:04;0.23;;;0.20;;
15679;SDS011;15488;48.114;11.532;2024-02-21T14:15:31;0.57;;;0.33;;
15679;SDS011;15488;48.114;11.532;2024-02-21T14:17:59;0.50;;;0.23;;
15679;SDS011;15488;48.114;11.532;2024-02-21T14:20:26;0.40;;;0.40;;
15679;SDS011;15488;48.114;11.532;2024-02-21T14:22:55;0.30;;;0.30;;
15679;SDS011;15488;48.114;11.532;2024-02-21T14:25:23;0.83;;;0.60;;
15679;SDS011;15488;48.114;11.532;2024-02-21T14:27:52;1.63;;;0.80;;
15679;SDS011;15488;48.114;11.532;2024-02-21T14:30:19;1.43;;;1.03;;
15679;SDS011;15488;48.114;11.532;2024-02-21T14:32:47;1.00;;;0.70;;
15679;SDS011;15488;48.114;11.532;2024-02-21T14:35:16;0.63;;;0.57;;
15679;SDS011;15488;48.114;11.532;2024-02-21T14:37:44;1.73;;;0.87;;
15679;SDS011;15488;48.114;11.532;2024-02-21T14:40:14;1.37;;;0.60;;